createdAt,value
2019-06-10T00:00:32.777Z,86.52
2019-06-10T00:01:32.808Z,87.15
2019-06-10T00:03:25.805Z,87.77
2019-06-10T00:04:25.871Z,88.40
2019-06-10T00:06:20.786Z,88.93
2019-06-10T00:07:20.983Z,90.03
2019-06-10T00:09:12.061Z,90.52
2019-06-10T00:10:11.974Z,91.76
2019-06-10T00:12:06.413Z,92.63
2019-06-10T00:13:05.708Z,92.91
2019-06-10T00:14:58.718Z,93.87
2019-06-10T00:15:59.265Z,94.54
2019-06-10T00:18:07.061Z,95.21
2019-06-10T00:18:51.202Z,94.93
2019-06-10T00:20:44.141Z,95.98
2019-06-10T00:21:44.517Z,96.08
2019-06-10T00:23:37.229Z,96.27
2019-06-10T00:24:37.277Z,96.27
2019-06-10T00:26:30.768Z,96.85
2019-06-10T00:27:31.140Z,96.08
2019-06-10T00:29:23.346Z,96.37
2019-06-10T00:30:23.386Z,96.18
2019-06-10T00:32:16.402Z,95.98
2019-06-10T00:33:16.443Z,95.41
2019-06-10T00:35:11.847Z,94.54
2019-06-10T00:36:13.270Z,95.21
2019-06-10T00:38:05.622Z,94.45
2019-06-10T00:39:05.243Z,94.45
2019-06-10T00:40:55.573Z,93.59
2019-06-10T00:41:55.617Z,93.68
2019-06-10T00:43:48.615Z,92.63
2019-06-10T00:44:50.795Z,92.58
2019-06-10T00:46:41.688Z,91.81
2019-06-10T00:47:41.727Z,90.95
2019-06-10T00:49:34.758Z,89.89
2019-06-10T00:50:34.790Z,90.56
2019-06-10T00:52:27.792Z,89.41
2019-06-10T00:53:27.849Z,89.51
2019-06-10T00:55:21.265Z,88.35
2019-06-10T00:56:21.659Z,88.17
2019-06-10T00:58:14.235Z,87.11
2019-06-10T00:59:15.343Z,86.82
2019-06-10T01:01:07.969Z,85.67
2019-06-10T01:02:08.095Z,85.28
2019-06-10T01:04:02.531Z,84.33
2019-06-10T01:05:00.874Z,83.85
2019-06-10T01:06:53.108Z,82.60
2019-06-10T01:07:53.144Z,81.45
2019-06-10T01:09:46.142Z,79.91
2019-06-10T01:10:46.201Z,78.96
2019-06-10T01:12:40.718Z,77.51
2019-06-10T01:13:41.260Z,77.33
2019-06-10T01:15:32.245Z,76.46
2019-06-10T01:16:32.307Z,76.07
2019-06-10T01:18:34.661Z,75.21
2019-06-10T01:19:25.364Z,75.02
2019-06-10T01:21:18.381Z,74.06
2019-06-10T01:22:18.411Z,73.10
2019-06-10T01:24:13.245Z,73.10
2019-06-10T01:25:12.400Z,73.20
2019-06-10T01:27:05.469Z,72.30
2019-06-10T01:28:05.631Z,71.57
2019-06-10T01:29:57.508Z,71.28
2019-06-10T01:30:57.579Z,71.44
2019-06-10T01:32:50.751Z,71.05
2019-06-10T01:33:51.376Z,70.57
2019-06-10T01:35:43.623Z,69.81
2019-06-10T01:36:43.687Z,69.42
2019-06-10T01:38:36.695Z,69.33
2019-06-10T01:39:36.739Z,69.52
2019-06-10T01:41:30.608Z,69.71
2019-06-10T01:42:30.682Z,69.33
2019-06-10T01:44:22.797Z,68.95
2019-06-10T01:45:22.838Z,69.90
2019-06-10T01:47:17.173Z,69.90
2019-06-10T01:48:16.714Z,69.81
2019-06-10T01:50:11.851Z,69.62
2019-06-10T01:51:09.085Z,69.71
2019-06-10T01:53:01.955Z,69.13
2019-06-10T01:54:01.997Z,68.95
2019-06-10T01:55:54.991Z,68.46
2019-06-10T01:56:55.065Z,68.66
2019-06-10T01:58:48.056Z,68.37
2019-06-10T01:59:50.682Z,68.08
2019-06-10T02:01:41.385Z,68.56
2019-06-10T02:02:44.718Z,67.79
2019-06-10T02:04:34.155Z,67.89
2019-06-10T02:05:34.197Z,68.08
2019-06-10T02:07:27.216Z,68.46
2019-06-10T02:08:27.245Z,68.37
2019-06-10T02:10:22.813Z,68.18
2019-06-10T02:11:23.430Z,69.42
2019-06-10T02:13:15.111Z,67.99
2019-06-10T02:14:17.444Z,67.99
2019-06-10T02:16:06.860Z,68.66
2019-06-10T02:17:06.926Z,67.50
2019-06-10T02:19:01.439Z,68.27
2019-06-10T02:20:01.112Z,68.08
2019-06-10T02:21:52.983Z,68.08
2019-06-10T02:22:53.038Z,68.46
2019-06-10T02:24:46.060Z,68.27
2019-06-10T02:25:46.083Z,67.69
2019-06-10T02:27:41.358Z,67.69
2019-06-10T02:28:40.683Z,67.79
2019-06-10T02:30:44.259Z,67.32
2019-06-10T02:31:37.625Z,67.99
2019-06-10T02:33:30.789Z,69.13
2019-06-10T02:34:27.427Z,70.96
2019-06-10T02:36:27.079Z,69.90
2019-06-10T02:37:22.492Z,70.19
2019-06-10T02:39:16.703Z,71.72
2019-06-10T02:40:16.711Z,71.44
2019-06-10T02:42:04.786Z,71.25
2019-06-10T02:43:04.412Z,70.38
2019-06-10T02:44:57.399Z,71.72
2019-06-10T02:45:57.461Z,71.82
2019-06-10T02:47:53.133Z,71.15
2019-06-10T02:48:54.193Z,71.53
2019-06-10T02:50:44.276Z,71.25
2019-06-10T02:51:44.255Z,71.44
2019-06-10T02:53:37.234Z,71.72
2019-06-10T02:54:36.633Z,71.92
2019-06-10T02:56:34.977Z,72.11
2019-06-10T02:57:36.606Z,72.39
2019-06-10T02:59:27.543Z,72.97
2019-06-10T03:00:36.078Z,72.88
2019-06-10T03:02:15.752Z,73.16
2019-06-10T03:03:25.708Z,72.68
2019-06-10T03:05:08.772Z,72.78
2019-06-10T03:06:09.222Z,71.92
2019-06-10T03:08:03.915Z,71.82
2019-06-10T03:09:03.701Z,71.05
2019-06-10T03:10:54.970Z,71.05
2019-06-10T03:11:54.950Z,70.96
2019-06-10T03:13:48.441Z,70.44
2019-06-10T03:14:48.494Z,70.57
2019-06-10T03:16:42.304Z,69.87
2019-06-10T03:17:42.896Z,68.91
2019-06-10T03:19:46.885Z,68.24
2019-06-10T03:20:34.602Z,67.76
2019-06-10T03:22:28.482Z,68.14
2019-06-10T03:23:27.957Z,67.85
2019-06-10T03:25:22.955Z,67.28
2019-06-10T03:26:23.908Z,66.32
2019-06-10T03:28:13.729Z,65.84
2019-06-10T03:29:13.760Z,66.22
2019-06-10T03:31:06.837Z,66.22
2019-06-10T03:32:06.820Z,65.08
2019-06-10T03:33:59.831Z,65.84
2019-06-10T03:34:59.882Z,65.26
2019-06-10T03:36:53.529Z,65.94
2019-06-10T03:37:52.932Z,66.22
2019-06-10T03:39:45.947Z,65.75
2019-06-10T03:40:45.990Z,66.99
2019-06-10T03:42:39.021Z,66.03
2019-06-10T03:43:39.044Z,65.94
2019-06-10T03:45:32.493Z,65.65
2019-06-10T03:46:32.819Z,65.75
2019-06-10T03:48:26.722Z,65.08
2019-06-10T03:49:26.868Z,65.17
2019-06-10T03:51:19.214Z,65.84
2019-06-10T03:52:19.274Z,65.55
2019-06-10T03:54:13.104Z,63.73
2019-06-10T03:55:12.276Z,65.08
2019-06-10T03:57:04.280Z,66.93
2019-06-10T03:58:04.323Z,66.80
2019-06-10T03:59:57.316Z,66.03
2019-06-10T04:00:57.381Z,66.61
2019-06-10T04:02:50.392Z,66.64
2019-06-10T04:03:52.820Z,66.35
2019-06-10T04:05:43.441Z,64.02
2019-06-10T04:06:44.462Z,63.76
2019-06-10T04:08:36.489Z,67.32
2019-06-10T04:09:36.533Z,67.32
2019-06-10T04:11:32.379Z,65.97
2019-06-10T04:12:29.597Z,67.99
2019-06-10T04:14:25.058Z,66.26
2019-06-10T04:15:25.193Z,66.06
2019-06-10T04:17:15.767Z,66.35
2019-06-10T04:18:15.790Z,67.41
2019-06-10T04:20:12.480Z,67.41
2019-06-10T04:21:08.854Z,67.50
2019-06-10T04:23:02.764Z,67.32
2019-06-10T04:24:02.409Z,67.18
2019-06-10T04:25:54.877Z,68.27
2019-06-10T04:26:54.937Z,67.22
2019-06-10T04:28:47.946Z,66.45
2019-06-10T04:29:47.989Z,67.12
2019-06-10T04:31:42.538Z,69.90
2019-06-10T04:32:42.899Z,69.13
2019-06-10T04:34:34.165Z,69.13
2019-06-10T04:35:34.198Z,68.85
2019-06-10T04:37:28.094Z,69.71
2019-06-10T04:38:27.607Z,69.42
2019-06-10T04:40:21.147Z,69.23
2019-06-10T04:41:20.967Z,69.42
2019-06-10T04:43:13.291Z,69.33
2019-06-10T04:44:13.383Z,69.13
2019-06-10T04:46:06.384Z,69.13
2019-06-10T04:47:06.425Z,68.75
2019-06-10T04:48:59.441Z,69.90
2019-06-10T04:49:59.487Z,69.71
2019-06-10T04:51:52.555Z,72.97
2019-06-10T04:52:52.942Z,72.78
2019-06-10T04:54:45.520Z,72.97
2019-06-10T04:55:45.584Z,74.54
2019-06-10T04:57:38.597Z,74.02
2019-06-10T04:58:38.643Z,76.81
2019-06-10T05:00:33.122Z,76.65
2019-06-10T05:01:33.574Z,77.13
2019-06-10T05:03:26.495Z,76.46
2019-06-10T05:04:26.554Z,76.37
2019-06-10T05:06:18.953Z,77.71
2019-06-10T05:07:18.921Z,76.07
2019-06-10T05:09:12.514Z,78.19
2019-06-10T05:10:12.387Z,78.09
2019-06-10T05:12:03.880Z,78.28
2019-06-10T05:13:03.909Z,78.67
2019-06-10T05:14:56.897Z,78.86
2019-06-10T05:15:56.960Z,79.44
2019-06-10T05:17:52.521Z,79.53
2019-06-10T05:18:54.132Z,80.40
2019-06-10T05:20:52.111Z,78.38
2019-06-10T05:21:43.058Z,79.82
2019-06-10T05:23:36.065Z,79.63
2019-06-10T05:24:36.124Z,80.87
2019-06-10T05:26:30.477Z,78.67
2019-06-10T05:27:30.811Z,78.86
2019-06-10T05:29:23.582Z,80.34
2019-06-10T05:30:25.042Z,81.45
2019-06-10T05:32:15.197Z,82.51
2019-06-10T05:33:15.261Z,82.64
2019-06-10T05:35:08.275Z,83.80
2019-06-10T05:36:08.313Z,82.54
2019-06-10T05:38:02.394Z,83.22
2019-06-10T05:39:02.712Z,82.64
2019-06-10T05:40:54.368Z,84.75
2019-06-10T05:41:54.414Z,84.56
2019-06-10T05:43:47.433Z,84.37
2019-06-10T05:44:47.464Z,85.04
2019-06-10T05:46:40.464Z,85.33
2019-06-10T05:47:42.623Z,85.81
2019-06-10T05:49:35.974Z,85.62
2019-06-10T05:50:34.898Z,86.96
2019-06-10T05:52:27.597Z,86.10
2019-06-10T05:53:28.026Z,85.66
2019-06-10T05:55:19.636Z,85.81
2019-06-10T05:56:21.949Z,84.99
2019-06-10T05:58:12.964Z,85.18
2019-06-10T05:59:12.799Z,85.85
2019-06-10T06:01:05.792Z,87.87
2019-06-10T06:02:05.859Z,87.39
2019-06-10T06:03:58.895Z,86.52
2019-06-10T06:04:58.913Z,87.87
2019-06-10T06:06:53.201Z,87.19
2019-06-10T06:08:04.129Z,86.62
2019-06-10T06:09:44.987Z,88.45
2019-06-10T06:10:45.028Z,87.87
2019-06-10T06:12:38.018Z,87.49
2019-06-10T06:13:38.120Z,89.60
2019-06-10T06:15:34.515Z,89.93
2019-06-10T06:16:33.091Z,89.26
2019-06-10T06:18:24.114Z,89.45
2019-06-10T06:19:24.181Z,88.78
2019-06-10T06:21:25.208Z,89.26
2019-06-10T06:22:17.262Z,91.75
2019-06-10T06:24:12.638Z,93.53
2019-06-10T06:25:10.290Z,95.40
2019-06-10T06:27:03.304Z,96.61
2019-06-10T06:28:03.348Z,96.12
2019-06-10T06:29:56.368Z,95.60
2019-06-10T06:30:56.403Z,94.10
2019-06-10T06:32:49.407Z,95.02
2019-06-10T06:33:52.372Z,94.73
2019-06-10T06:35:46.208Z,95.65
2019-06-10T06:36:42.527Z,95.45
2019-06-10T06:38:37.196Z,95.45
2019-06-10T06:39:37.094Z,95.02
2019-06-10T06:41:29.499Z,95.12
2019-06-10T06:42:29.402Z,95.02
2019-06-10T06:44:23.344Z,94.73
2019-06-10T06:45:22.319Z,93.68
2019-06-10T06:47:15.239Z,93.77
2019-06-10T06:48:15.283Z,93.29
2019-06-10T06:50:08.281Z,94.45
2019-06-10T06:51:08.901Z,92.91
2019-06-10T06:53:19.942Z,91.36
2019-06-10T06:54:03.257Z,90.59
2019-06-10T06:55:56.009Z,90.17
2019-06-10T06:56:54.969Z,89.98
2019-06-10T06:58:47.996Z,88.53
2019-06-10T06:59:48.031Z,88.92
2019-06-10T07:01:44.185Z,87.76
2019-06-10T07:02:43.569Z,88.34
2019-06-10T07:04:35.463Z,88.06
2019-06-10T07:05:35.605Z,87.57
2019-06-10T07:07:27.153Z,88.63
2019-06-10T07:08:27.200Z,89.06
2019-06-10T07:10:22.708Z,89.64
2019-06-10T07:11:22.447Z,91.03
2019-06-10T07:13:13.282Z,91.89
2019-06-10T07:14:13.540Z,93.33
2019-06-10T07:16:06.314Z,93.77
2019-06-10T07:17:06.366Z,94.34
2019-06-10T07:18:59.382Z,94.64
2019-06-10T07:19:59.427Z,95.12
2019-06-10T07:22:08.333Z,94.97
2019-06-10T07:22:53.315Z,94.82
2019-06-10T07:24:47.690Z,96.03
2019-06-10T07:25:47.518Z,95.74
2019-06-10T07:27:40.131Z,95.84
2019-06-10T07:28:40.773Z,95.74
2019-06-10T07:30:34.265Z,95.74
2019-06-10T07:31:33.558Z,95.74
2019-06-10T07:33:24.714Z,95.50
2019-06-10T07:34:24.757Z,96.03
2019-06-10T07:36:17.752Z,94.63
2019-06-10T07:37:17.814Z,92.26
2019-06-10T07:39:13.170Z,90.57
2019-06-10T07:40:12.970Z,82.45
2019-06-10T07:42:03.870Z,75.23
2019-06-10T07:43:03.941Z,75.78
2019-06-10T07:44:56.957Z,79.50
2019-06-10T07:45:56.992Z,77.90
2019-06-10T07:47:52.179Z,77.13
2019-06-10T07:48:53.563Z,78.06
2019-06-10T07:50:45.608Z,81.20
2019-06-10T07:51:46.143Z,83.14
2019-06-10T07:53:36.997Z,83.81
2019-06-10T07:54:37.484Z,83.33
2019-06-10T07:56:33.836Z,83.81
2019-06-10T07:57:29.263Z,84.24
2019-06-10T07:59:23.310Z,81.67
2019-06-10T08:00:22.772Z,73.11
2019-06-10T08:02:15.349Z,66.24
2019-06-10T08:03:15.384Z,65.40
2019-06-10T08:05:08.388Z,58.10
2019-06-10T08:06:08.451Z,54.21
2019-06-10T08:08:02.822Z,49.58
2019-06-10T08:09:02.283Z,49.07
2019-06-10T08:10:54.525Z,47.55
2019-06-10T08:11:54.596Z,46.47
2019-06-10T08:13:48.053Z,45.44
2019-06-10T08:14:47.992Z,45.69
2019-06-10T08:16:42.528Z,48.58
2019-06-10T08:17:42.954Z,50.07
2019-06-10T08:19:37.794Z,53.77
2019-06-10T08:20:34.930Z,55.39
2019-06-10T08:22:33.576Z,57.72
2019-06-10T08:23:26.949Z,55.32
2019-06-10T08:25:19.978Z,55.85
2019-06-10T08:26:20.029Z,56.52
2019-06-10T08:28:13.479Z,55.98
2019-06-10T08:29:13.110Z,55.19
2019-06-10T08:31:06.135Z,56.70
2019-06-10T08:32:06.190Z,58.12
2019-06-10T08:33:59.184Z,59.00
2019-06-10T08:34:59.466Z,61.14
2019-06-10T08:36:54.478Z,58.83
2019-06-10T08:37:52.951Z,56.10
2019-06-10T08:39:46.287Z,53.21
2019-06-10T08:40:48.387Z,51.95
2019-06-10T08:42:38.920Z,50.98
2019-06-10T08:43:38.591Z,48.58
2019-06-10T08:45:33.335Z,50.90
2019-06-10T08:46:33.004Z,50.51
2019-06-10T08:48:24.632Z,51.70
2019-06-10T08:49:24.680Z,53.67
2019-06-10T08:51:17.711Z,57.53
2019-06-10T08:52:17.773Z,57.39
2019-06-10T08:54:12.822Z,54.16
2019-06-10T08:55:12.582Z,52.44
2019-06-10T08:57:04.703Z,52.78
2019-06-10T08:58:04.525Z,51.80
2019-06-10T08:59:56.991Z,52.04
2019-06-10T09:00:57.043Z,51.58
2019-06-10T09:02:53.662Z,52.50
2019-06-10T09:03:52.996Z,54.79
2019-06-10T09:05:47.473Z,54.52
2019-06-10T09:06:46.341Z,53.44
2019-06-10T09:08:36.253Z,51.04
2019-06-10T09:09:36.307Z,51.68
2019-06-10T09:11:29.345Z,52.14
2019-06-10T09:12:35.861Z,51.65
2019-06-10T09:14:23.426Z,51.63
2019-06-10T09:15:23.632Z,51.04
2019-06-10T09:17:15.510Z,48.24
2019-06-10T09:18:19.662Z,47.08
2019-06-10T09:20:08.595Z,48.09
2019-06-10T09:21:08.652Z,47.99
2019-06-10T09:23:17.843Z,50.65
2019-06-10T09:24:03.928Z,50.75
2019-06-10T09:25:57.601Z,51.97
2019-06-10T09:26:55.173Z,51.82
2019-06-10T09:28:52.413Z,50.24
2019-06-10T09:29:52.116Z,51.95
2019-06-10T09:31:45.574Z,53.02
2019-06-10T09:32:45.874Z,52.12
2019-06-10T09:34:34.003Z,52.58
2019-06-10T09:35:34.076Z,53.55
2019-06-10T09:37:27.094Z,53.81
2019-06-10T09:38:27.157Z,53.62
2019-06-10T09:40:22.754Z,53.79
2019-06-10T09:41:26.609Z,53.54
2019-06-10T09:43:13.263Z,54.25
2019-06-10T09:44:13.313Z,54.13
2019-06-10T09:46:06.347Z,55.32
2019-06-10T09:47:06.400Z,54.93
2019-06-10T09:48:59.430Z,56.20
2019-06-10T09:49:59.472Z,56.68
2019-06-10T09:51:57.043Z,56.70
2019-06-10T09:52:57.002Z,57.67
2019-06-10T09:54:50.027Z,59.51
2019-06-10T09:55:48.031Z,61.45
2019-06-10T09:57:38.658Z,57.21
2019-06-10T09:58:38.715Z,57.11
2019-06-10T10:00:33.204Z,60.12
2019-06-10T10:01:32.702Z,58.95
2019-06-10T10:03:24.808Z,56.92
2019-06-10T10:04:24.861Z,56.82
2019-06-10T10:06:17.890Z,55.75
2019-06-10T10:07:17.930Z,56.11
2019-06-10T10:09:10.940Z,56.79
2019-06-10T10:10:12.879Z,57.28
2019-06-10T10:12:04.036Z,56.40
2019-06-10T10:13:04.087Z,56.60
2019-06-10T10:14:57.109Z,59.28
2019-06-10T10:15:57.156Z,59.58
2019-06-10T10:17:52.041Z,62.49
2019-06-10T10:18:56.590Z,60.64
2019-06-10T10:20:47.830Z,66.27
2019-06-10T10:21:48.853Z,63.17
2019-06-10T10:23:50.156Z,60.88
2019-06-10T10:24:36.378Z,63.85
2019-06-10T10:26:29.403Z,65.82
2019-06-10T10:27:29.445Z,63.59
2019-06-10T10:29:22.861Z,64.11
2019-06-10T10:30:24.424Z,62.75
2019-06-10T10:32:15.537Z,63.30
2019-06-10T10:33:15.584Z,64.85
2019-06-10T10:35:08.635Z,62.04
2019-06-10T10:36:08.682Z,64.01
2019-06-10T10:38:03.834Z,63.85
2019-06-10T10:39:02.466Z,62.88
2019-06-10T10:40:58.512Z,61.68
2019-06-10T10:41:57.051Z,62.01
2019-06-10T10:43:51.160Z,63.23
2019-06-10T10:44:51.237Z,63.53
2019-06-10T10:46:40.916Z,64.69
2019-06-10T10:47:40.973Z,64.78
2019-06-10T10:49:33.987Z,63.91
2019-06-10T10:50:34.243Z,63.04
2019-06-10T10:52:27.036Z,64.92
2019-06-10T10:53:27.137Z,62.68
2019-06-10T10:55:22.319Z,63.46
2019-06-10T10:56:22.306Z,62.49
2019-06-10T10:58:13.683Z,63.85
2019-06-10T10:59:13.758Z,62.29
2019-06-10T11:01:06.771Z,62.98
2019-06-10T11:02:06.850Z,62.19
2019-06-10T11:04:02.791Z,62.29
2019-06-10T11:04:59.918Z,62.39
2019-06-10T11:06:56.496Z,62.16
2019-06-10T11:07:55.190Z,63.13
2019-06-10T11:09:46.641Z,64.30
2019-06-10T11:10:47.836Z,63.20
2019-06-10T11:12:39.081Z,63.33
2019-06-10T11:13:39.122Z,67.11
2019-06-10T11:15:33.772Z,64.30
2019-06-10T11:16:33.036Z,63.62
2019-06-10T11:18:25.214Z,63.69
2019-06-10T11:19:25.260Z,63.98
2019-06-10T11:21:18.265Z,64.47
2019-06-10T11:22:18.333Z,63.23
2019-06-10T11:24:14.294Z,64.11
2019-06-10T11:25:12.554Z,63.59
2019-06-10T11:27:04.420Z,64.07
2019-06-10T11:28:04.467Z,66.63
2019-06-10T11:29:59.056Z,64.11
2019-06-10T11:30:58.683Z,64.11
2019-06-10T11:32:53.538Z,62.39
2019-06-10T11:33:53.843Z,62.98
2019-06-10T11:35:43.596Z,64.92
2019-06-10T11:36:43.670Z,63.85
2019-06-10T11:38:36.690Z,63.10
2019-06-10T11:39:38.756Z,63.88
2019-06-10T11:41:29.742Z,60.97
2019-06-10T11:42:29.810Z,61.25
2019-06-10T11:44:22.841Z,60.19
2019-06-10T11:45:22.878Z,61.07
2019-06-10T11:47:15.891Z,61.25
2019-06-10T11:48:15.961Z,61.42
2019-06-10T11:50:08.974Z,63.85
2019-06-10T11:51:09.024Z,62.29
2019-06-10T11:53:04.255Z,63.56
2019-06-10T11:54:03.401Z,61.49
2019-06-10T11:55:56.406Z,65.14
2019-06-10T11:56:58.025Z,65.05
2019-06-10T11:58:49.973Z,65.92
2019-06-10T11:59:50.146Z,69.24
2019-06-10T12:01:42.822Z,64.11
2019-06-10T12:02:42.710Z,65.75
2019-06-10T12:04:35.688Z,63.33
2019-06-10T12:05:35.753Z,62.46
2019-06-10T12:07:28.755Z,62.39
2019-06-10T12:08:28.815Z,67.73
2019-06-10T12:10:23.312Z,64.04
2019-06-10T12:11:23.047Z,62.39
2019-06-10T12:13:14.889Z,62.98
2019-06-10T12:14:14.978Z,62.29
2019-06-10T12:17:05.209Z,62.49
2019-06-10T12:17:31.050Z,67.24
2019-06-10T12:19:03.589Z,64.72
2019-06-10T12:20:03.146Z,63.65
2019-06-10T12:21:59.185Z,64.26
2019-06-10T12:22:57.111Z,62.52
2019-06-10T12:24:47.180Z,61.32
2019-06-10T12:25:48.095Z,62.36
2019-06-10T12:27:40.284Z,63.23
2019-06-10T12:28:42.925Z,65.20
2019-06-10T12:30:34.424Z,63.88
2019-06-10T12:31:34.510Z,61.94
2019-06-10T12:33:26.410Z,61.48
2019-06-10T12:34:26.461Z,61.48
2019-06-10T12:36:19.489Z,63.42
2019-06-10T12:37:19.538Z,63.04
2019-06-10T12:39:15.551Z,63.81
2019-06-10T12:40:12.889Z,62.07
2019-06-10T12:42:06.570Z,59.76
2019-06-10T12:43:07.107Z,60.15
2019-06-10T12:44:59.358Z,59.18
2019-06-10T12:45:59.135Z,58.89
2019-06-10T12:47:55.013Z,59.11
2019-06-10T12:48:54.009Z,58.23
2019-06-10T12:50:44.847Z,59.99
2019-06-10T12:51:44.887Z,59.28
2019-06-10T12:53:37.912Z,58.79
2019-06-10T12:54:37.959Z,59.86
2019-06-10T12:56:32.783Z,58.69
2019-06-10T12:57:32.564Z,61.02
2019-06-10T12:59:24.066Z,59.67
2019-06-10T13:00:26.512Z,60.25
2019-06-10T13:02:23.057Z,57.56
2019-06-10T13:03:17.192Z,58.62
2019-06-10T13:05:12.240Z,59.08
2019-06-10T13:06:12.695Z,57.43
2019-06-10T13:08:05.767Z,60.86
2019-06-10T13:09:05.968Z,58.43
2019-06-10T13:10:56.897Z,57.72
2019-06-10T13:11:57.775Z,58.69
2019-06-10T13:13:49.413Z,59.67
2019-06-10T13:14:51.933Z,59.76
2019-06-10T13:16:43.302Z,58.79
2019-06-10T13:17:43.943Z,58.04
2019-06-10T13:19:35.529Z,57.43
2019-06-10T13:20:35.600Z,58.40
2019-06-10T13:22:28.618Z,59.59
2019-06-10T13:23:34.391Z,59.21
2019-06-10T13:25:22.124Z,58.59
2019-06-10T13:26:23.141Z,58.37
2019-06-10T13:28:14.766Z,60.22
2019-06-10T13:29:17.586Z,60.41
2019-06-10T13:31:09.951Z,61.29
2019-06-10T13:32:08.156Z,60.31
2019-06-10T13:34:06.695Z,61.29
2019-06-10T13:35:00.951Z,60.31
2019-06-10T13:36:53.990Z,60.02
2019-06-10T13:37:54.036Z,60.12
2019-06-10T13:39:47.027Z,59.67
2019-06-10T13:40:47.118Z,59.67
2019-06-10T13:42:42.211Z,60.22
2019-06-10T13:43:40.164Z,60.64
2019-06-10T13:45:33.344Z,61.97
2019-06-10T13:46:33.231Z,61.41
2019-06-10T13:48:27.151Z,60.93
2019-06-10T13:49:26.585Z,61.12
2019-06-10T13:51:19.322Z,59.86
2019-06-10T13:52:19.376Z,59.47
2019-06-10T13:54:14.035Z,58.79
2019-06-10T13:55:13.667Z,59.47
2019-06-10T13:57:06.933Z,60.08
2019-06-10T13:58:08.386Z,59.01
2019-06-10T13:59:59.271Z,58.23
2019-06-10T14:00:59.777Z,58.82
2019-06-10T14:02:52.274Z,59.01
2019-06-10T14:03:53.829Z,59.11
2019-06-10T14:05:45.259Z,59.14
2019-06-10T14:06:49.887Z,58.75
2019-06-10T14:08:37.784Z,59.11
2019-06-10T14:09:37.872Z,58.04
2019-06-10T14:11:33.181Z,61.12
2019-06-10T14:12:32.378Z,57.92
2019-06-10T14:14:23.870Z,58.89
2019-06-10T14:15:23.940Z,59.41
2019-06-10T14:17:19.456Z,58.40
2019-06-10T14:18:17.008Z,58.53
2019-06-10T14:20:10.865Z,59.01
2019-06-10T14:21:14.084Z,59.11
2019-06-10T14:23:04.095Z,59.14
2019-06-10T14:24:04.146Z,59.79
2019-06-10T14:25:56.166Z,58.53
2019-06-10T14:26:56.249Z,57.85
2019-06-10T14:28:49.235Z,57.78
2019-06-10T14:29:49.283Z,58.46
2019-06-10T14:31:45.095Z,58.07
2019-06-10T14:32:42.625Z,57.78
2019-06-10T14:34:35.385Z,58.56
2019-06-10T14:35:35.430Z,57.65
2019-06-10T14:37:38.510Z,58.59
2019-06-10T14:38:28.508Z,59.89
2019-06-10T14:40:25.263Z,57.92
2019-06-10T14:41:25.638Z,59.86
2019-06-10T14:43:16.264Z,59.57
2019-06-10T14:44:17.784Z,59.18
2019-06-10T14:46:09.003Z,58.79
2019-06-10T14:47:08.872Z,58.79
2019-06-10T14:49:02.321Z,58.98
2019-06-10T14:50:03.139Z,58.69
2019-06-10T14:51:54.006Z,58.79
2019-06-10T14:52:53.904Z,59.38
2019-06-10T14:54:46.900Z,59.08
2019-06-10T14:55:46.970Z,62.48
2019-06-10T14:57:42.492Z,60.05
2019-06-10T14:58:42.293Z,60.05
2019-06-10T15:00:33.455Z,59.11
2019-06-10T15:01:33.090Z,59.11
2019-06-10T15:03:26.114Z,59.69
2019-06-10T15:04:26.158Z,59.11
2019-06-10T15:06:20.055Z,59.50
2019-06-10T15:07:20.833Z,59.41
2019-06-10T15:09:13.587Z,58.92
2019-06-10T15:10:15.687Z,59.11
2019-06-10T15:12:05.340Z,58.53
2019-06-10T15:13:05.374Z,58.62
2019-06-10T15:14:58.436Z,59.31
2019-06-10T15:15:58.503Z,59.11
2019-06-10T15:17:52.474Z,59.28
2019-06-10T15:18:52.532Z,58.79
2019-06-10T15:20:44.637Z,59.08
2019-06-10T15:21:44.682Z,59.76
2019-06-10T15:23:37.698Z,60.44
2019-06-10T15:24:37.743Z,60.31
2019-06-10T15:26:32.676Z,60.02
2019-06-10T15:27:33.865Z,61.22
2019-06-10T15:29:23.823Z,60.64
2019-06-10T15:30:27.962Z,59.57
2019-06-10T15:32:27.744Z,60.35
2019-06-10T15:33:18.177Z,60.44
2019-06-10T15:35:11.275Z,61.61
2019-06-10T15:36:11.218Z,62.38
2019-06-10T15:38:04.137Z,62.45
2019-06-10T15:39:03.094Z,61.35
2019-06-10T15:40:56.115Z,63.01
2019-06-10T15:41:56.165Z,62.39
2019-06-10T15:43:49.178Z,62.59
2019-06-10T15:44:55.154Z,63.07
2019-06-10T15:46:43.067Z,63.56
2019-06-10T15:47:42.798Z,62.29
2019-06-10T15:49:35.329Z,62.29
2019-06-10T15:50:35.378Z,63.75
2019-06-10T15:52:28.367Z,63.95
2019-06-10T15:53:28.432Z,63.91
2019-06-10T15:55:49.148Z,64.78
2019-06-10T15:56:37.352Z,65.08
2019-06-10T15:58:17.499Z,65.63
2019-06-10T15:59:17.996Z,64.75
2019-06-10T16:01:09.094Z,65.82
2019-06-10T16:02:09.157Z,67.18
2019-06-10T16:04:02.163Z,65.82
2019-06-10T16:05:02.222Z,67.18
2019-06-10T16:06:55.250Z,64.75
2019-06-10T16:07:55.301Z,64.30
2019-06-10T16:09:48.327Z,64.78
2019-06-10T16:10:48.365Z,66.24
2019-06-10T16:12:43.748Z,65.37
2019-06-10T16:13:42.995Z,67.21
2019-06-10T16:15:34.425Z,68.47
2019-06-10T16:16:34.497Z,67.40
2019-06-10T16:18:28.142Z,66.82
2019-06-10T16:19:27.573Z,64.69
2019-06-10T16:21:21.928Z,65.53
2019-06-10T16:22:22.280Z,66.79
2019-06-10T16:24:15.483Z,67.47
2019-06-10T16:25:14.332Z,67.85
2019-06-10T16:27:06.717Z,67.95
2019-06-10T16:28:06.788Z,68.82
2019-06-10T16:30:02.787Z,67.95
2019-06-10T16:31:02.515Z,69.12
2019-06-10T16:32:53.121Z,70.57
2019-06-10T16:33:52.932Z,70.67
2019-06-10T16:35:45.938Z,71.06
2019-06-10T16:36:45.993Z,73.77
2019-06-10T16:38:39.019Z,74.26
2019-06-10T16:39:39.057Z,70.90
2019-06-10T16:41:32.405Z,70.70
2019-06-10T16:42:32.257Z,68.92
2019-06-10T16:44:28.034Z,69.50
2019-06-10T16:45:29.022Z,70.86
2019-06-10T16:47:19.093Z,73.09
2019-06-10T16:48:19.016Z,71.83
2019-06-10T16:50:12.168Z,76.87
2019-06-10T16:51:13.310Z,81.29
2019-06-10T16:53:04.334Z,90.69
2019-06-10T16:54:04.405Z,92.63
2019-06-10T16:55:57.418Z,95.29
2019-06-10T16:56:57.491Z,94.52
2019-06-10T16:58:52.317Z,90.16
2019-06-10T16:59:52.097Z,92.49
2019-06-10T17:01:43.572Z,84.25
2019-06-10T17:02:43.611Z,80.44
2019-06-10T17:04:36.639Z,88.95
2019-06-10T17:05:36.681Z,81.30
2019-06-10T17:07:29.726Z,76.24
2019-06-10T17:08:30.302Z,62.59
2019-06-10T17:10:23.946Z,60.85
2019-06-10T17:11:24.159Z,51.76
2019-06-10T17:13:15.845Z,46.92
2019-06-10T17:14:15.896Z,41.09
2019-06-10T17:16:08.929Z,12.38
2019-06-10T17:17:08.965Z,11.60
2019-06-10T17:19:02.460Z,0.00
2019-06-10T17:20:03.766Z,0.00
2019-06-10T17:21:55.065Z,0.00
2019-06-10T17:22:55.103Z,0.00
2019-06-10T17:24:48.122Z,0.00
2019-06-10T17:25:48.167Z,0.00
2019-06-10T17:27:42.262Z,0.00
2019-06-10T17:28:42.869Z,0.00
2019-06-10T17:30:34.823Z,0.00
2019-06-10T17:31:35.105Z,0.00
2019-06-10T17:33:29.721Z,0.00
2019-06-10T17:34:29.230Z,0.00
2019-06-10T17:36:20.408Z,0.00
2019-06-10T17:37:20.430Z,0.00
2019-06-10T17:39:13.445Z,0.00
2019-06-10T17:40:13.494Z,0.00
2019-06-10T17:42:06.495Z,0.00
2019-06-10T17:43:06.550Z,0.00
2019-06-10T17:44:59.571Z,0.00
2019-06-10T17:45:59.606Z,0.00
2019-06-10T17:47:52.648Z,0.00
2019-06-10T17:48:52.738Z,0.00
2019-06-10T17:50:45.768Z,0.00
2019-06-10T17:51:45.815Z,0.00
2019-06-10T17:53:38.779Z,0.00
2019-06-10T17:54:38.802Z,0.00
2019-06-10T17:56:35.667Z,0.00
2019-06-10T17:57:35.765Z,0.00
2019-06-10T17:59:25.329Z,0.00
2019-06-10T18:00:26.221Z,0.00
2019-06-10T18:02:17.924Z,0.00
2019-06-10T18:03:17.973Z,0.00
2019-06-10T18:05:12.763Z,0.00
2019-06-10T18:06:13.222Z,0.00
2019-06-10T18:08:04.025Z,0.00
2019-06-10T18:09:04.178Z,0.00
2019-06-10T18:10:57.122Z,0.00
2019-06-10T18:11:57.144Z,0.00
2019-06-10T18:13:50.177Z,0.00
2019-06-10T18:14:52.499Z,0.00
2019-06-10T18:16:43.198Z,0.00
2019-06-10T18:17:43.261Z,0.00
2019-06-10T18:19:37.440Z,0.00
2019-06-10T18:20:37.022Z,0.00
2019-06-10T18:22:31.217Z,0.00
2019-06-10T18:23:30.863Z,0.00
2019-06-10T18:25:23.067Z,0.00
2019-06-10T18:26:23.277Z,0.00
2019-06-10T18:28:15.949Z,0.00
2019-06-10T18:29:16.014Z,0.00
2019-06-10T18:31:09.094Z,0.00
2019-06-10T18:32:09.139Z,0.00
2019-06-10T18:34:02.531Z,0.00
2019-06-10T18:35:02.979Z,0.00
2019-06-10T18:36:55.202Z,0.00